Fruitland, Maryland
Current Conditions -  °F | °C
As of 10:54 AM on Friday 24 Oct 2014 (Local Time) from KSBY Reporting Station
Few Clouds Few Clouds  
Wind Chill: 63°   Ceiling: Unl
Heat Index: 63°   Visibility: 10mi
Dew Point: 46°   Wind: 14mph
Humidity: 54%   Direction: 310°NW
Pressure: 29.91"   Gusts: 25mph
Location:  38.32°N, 75.62°W
Report Text: KSBY 241454Z 31012G22KT 10SM FEW034 17/08 A2991 RMK AO2 SLP131 T01720078 50003
Loading
Personal Weather Stations






























Interactive Weather Map
Tropical Storm Tracking
New forecast layout! Learn more

10-Day Weather Forecast

Advertisements
Track Severe Weather on mobile